Impacts METAR Board
IDs:

KAQO - Llano Muni, TX, US

Updated at: 0300 UTC 15 Aug 2020
Potential Impact None Slight Moderate High
Time 14/15Z 14/16Z 14/17Z 14/18Z 14/19Z 14/20Z 14/21Z 14/22Z 14/23Z 15/00Z 15/01Z 15/02Z 15/03Z
Temp88 93 95 100 102 104 106 106 106 104 102 95 93
Dewpt70 64 64 61 55 55 52 52 50 52 52 52 54
Altim29.96 29.96 29.95 29.93 29.90 29.87 29.85 29.83 29.82 29.81 29.82 29.83 29.85
VIS10 10 10 10 10 10 10 10 10 10 10 10 10
CIG-- -- -- -- -- -- -- -- -- -- -- -- --
CoverCLRCLRCLRCLRCLRCLRCLRCLRCLRCLRCLRCLRCLR
FltCatVFRVFRVFRVFRVFRVFRVFRVFRVFRVFRVFRVFRVFR
WX--------------------------
WDir020023002301802102100210190160160
WSpd5 10 6 6 5 9 10 7 5 9 6 5 4
WGst-- -- 12 -- 13 15 16 14 14 -- -- -- --
Raw hourly METARs
KAQO 141455Z AUTO VRB05KT 10SM CLR 31/21 A2996 RMK AO2
KAQO 141555Z AUTO 20010KT 10SM CLR 34/18 A2996 RMK AO2
KAQO 141655Z AUTO 23006G12KT 10SM CLR 35/18 A2995 RMK AO2
KAQO 141755Z AUTO VRB06KT 10SM CLR 38/16 A2993 RMK AO2
KAQO 141855Z AUTO 23005G13KT 10SM CLR 39/13 A2990 RMK AO2
KAQO 141955Z AUTO 18009G15KT 10SM CLR 40/13 A2987 RMK AO2
KAQO 142055Z AUTO 21010G16KT 10SM CLR 41/11 A2985 RMK AO2
KAQO 142155Z AUTO 21007G14KT 180V240 10SM CLR 41/11 A2983 RMK AO2
KAQO 142255Z AUTO VRB05G14KT 10SM CLR 41/10 A2982 RMK AO2
KAQO 142355Z AUTO 21009KT 10SM CLR 40/11 A2981 RMK AO2
KAQO 150055Z AUTO 19006KT 10SM CLR 39/11 A2982 RMK AO2
KAQO 150155Z AUTO 16005KT 10SM CLR 35/11 A2983 RMK AO2
KAQO 150255Z AUTO 16004KT 10SM CLR 34/12 A2985 RMK AO2